sensor_id;sensor_type;location;lat;lon;timestamp;temperature;humidity
19803;DHT22;66074;50.764;6.090;2023-07-29T00:01:42;20.70;99.90
19803;DHT22;66074;50.764;6.090;2023-07-29T00:04:08;20.70;99.90
19803;DHT22;66074;50.764;6.090;2023-07-29T00:06:37;20.70;99.90
19803;DHT22;66074;50.764;6.090;2023-07-29T00:09:02;20.70;99.90
19803;DHT22;66074;50.764;6.090;2023-07-29T00:11:28;20.70;99.90
19803;DHT22;66074;50.764;6.090;2023-07-29T00:13:54;20.70;99.90
19803;DHT22;66074;50.764;6.090;2023-07-29T00:16:20;20.70;99.90
19803;DHT22;66074;50.764;6.090;2023-07-29T00:18:48;20.80;99.90
19803;DHT22;66074;50.764;6.090;2023-07-29T00:21:13;20.80;99.90
19803;DHT22;66074;50.764;6.090;2023-07-29T00:23:39;20.80;99.90
19803;DHT22;66074;50.764;6.090;2023-07-29T00:26:05;20.80;99.90
19803;DHT22;66074;50.764;6.090;2023-07-29T00:28:30;20.80;99.90
19803;DHT22;66074;50.764;6.090;2023-07-29T00:30:56;20.80;99.90
19803;DHT22;66074;50.764;6.090;2023-07-29T00:33:22;20.80;99.90
19803;DHT22;66074;50.764;6.090;2023-07-29T00:35:47;20.70;99.90
19803;DHT22;66074;50.764;6.090;2023-07-29T00:38:13;20.80;99.90
19803;DHT22;66074;50.764;6.090;2023-07-29T00:40:39;20.70;99.90
19803;DHT22;66074;50.764;6.090;2023-07-29T00:43:05;20.70;99.90
19803;DHT22;66074;50.764;6.090;2023-07-29T00:45:32;20.70;99.90
19803;DHT22;66074;50.764;6.090;2023-07-29T00:47:58;20.60;99.90
19803;DHT22;66074;50.764;6.090;2023-07-29T00:50:24;20.60;99.90
19803;DHT22;66074;50.764;6.090;2023-07-29T00:52:53;20.60;99.90
19803;DHT22;66074;50.764;6.090;2023-07-29T00:55:19;20.60;99.90
19803;DHT22;66074;50.764;6.090;2023-07-29T00:57:45;20.60;99.90
19803;DHT22;66074;50.764;6.090;2023-07-29T01:00:14;20.50;99.90
19803;DHT22;66074;50.764;6.090;2023-07-29T01:02:39;20.50;99.90
19803;DHT22;66074;50.764;6.090;2023-07-29T01:05:06;20.40;99.90
19803;DHT22;66074;50.764;6.090;2023-07-29T01:10:39;20.40;99.90
19803;DHT22;66074;50.764;6.090;2023-07-29T01:13:28;20.40;99.90
19803;DHT22;66074;50.764;6.090;2023-07-29T01:16:00;20.30;99.90
19803;DHT22;66074;50.764;6.090;2023-07-29T01:18:30;20.30;99.90
19803;DHT22;66074;50.764;6.090;2023-07-29T01:21:00;20.30;99.90
19803;DHT22;66074;50.764;6.090;2023-07-29T01:23:31;20.30;99.90
19803;DHT22;66074;50.764;6.090;2023-07-29T01:25:57;20.30;99.90
19803;DHT22;66074;50.764;6.090;2023-07-29T01:28:23;20.30;99.90
19803;DHT22;66074;50.764;6.090;2023-07-29T01:30:51;20.30;99.90
19803;DHT22;66074;50.764;6.090;2023-07-29T01:33:26;20.30;99.90
19803;DHT22;66074;50.764;6.090;2023-07-29T01:36:02;20.30;99.90
19803;DHT22;66074;50.764;6.090;2023-07-29T01:38:32;20.20;99.90
19803;DHT22;66074;50.764;6.090;2023-07-29T01:41:01;20.20;99.90
19803;DHT22;66074;50.764;6.090;2023-07-29T01:43:29;20.20;99.90
19803;DHT22;66074;50.764;6.090;2023-07-29T01:45:55;20.20;99.90
19803;DHT22;66074;50.764;6.090;2023-07-29T01:48:20;20.10;99.90
19803;DHT22;66074;50.764;6.090;2023-07-29T01:50:46;20.10;99.90
19803;DHT22;66074;50.764;6.090;2023-07-29T01:53:11;20.10;99.90
19803;DHT22;66074;50.764;6.090;2023-07-29T01:55:38;20.10;99.90
19803;DHT22;66074;50.764;6.090;2023-07-29T01:58:03;20.10;99.90
19803;DHT22;66074;50.764;6.090;2023-07-29T02:00:29;20.00;99.90
19803;DHT22;66074;50.764;6.090;2023-07-29T02:02:54;20.00;99.90
19803;DHT22;66074;50.764;6.090;2023-07-29T02:05:20;20.00;99.90
19803;DHT22;66074;50.764;6.090;2023-07-29T02:07:46;20.00;99.90
19803;DHT22;66074;50.764;6.090;2023-07-29T02:10:11;20.00;99.90
19803;DHT22;66074;50.764;6.090;2023-07-29T02:12:37;19.90;99.90
19803;DHT22;66074;50.764;6.090;2023-07-29T02:15:03;20.00;99.90
19803;DHT22;66074;50.764;6.090;2023-07-29T02:17:30;19.90;99.90
19803;DHT22;66074;50.764;6.090;2023-07-29T02:19:55;20.00;99.90
19803;DHT22;66074;50.764;6.090;2023-07-29T02:22:21;19.90;99.90
19803;DHT22;66074;50.764;6.090;2023-07-29T02:24:46;20.00;99.90
19803;DHT22;66074;50.764;6.090;2023-07-29T02:27:12;20.00;99.90
19803;DHT22;66074;50.764;6.090;2023-07-29T02:29:38;20.00;99.90
19803;DHT22;66074;50.764;6.090;2023-07-29T02:32:03;20.00;99.90
19803;DHT22;66074;50.764;6.090;2023-07-29T02:34:29;20.00;99.90
19803;DHT22;66074;50.764;6.090;2023-07-29T02:36:55;20.00;99.90
19803;DHT22;66074;50.764;6.090;2023-07-29T02:39:21;19.90;99.90
19803;DHT22;66074;50.764;6.090;2023-07-29T02:41:47;19.90;99.90
19803;DHT22;66074;50.764;6.090;2023-07-29T02:44:12;19.80;99.90
19803;DHT22;66074;50.764;6.090;2023-07-29T02:46:38;19.80;99.90
19803;DHT22;66074;50.764;6.090;2023-07-29T02:49:04;19.90;99.90
19803;DHT22;66074;50.764;6.090;2023-07-29T02:51:30;19.80;99.90
19803;DHT22;66074;50.764;6.090;2023-07-29T02:53:56;19.80;99.90
19803;DHT22;66074;50.764;6.090;2023-07-29T02:56:21;19.80;99.90
19803;DHT22;66074;50.764;6.090;2023-07-29T02:58:47;19.80;99.90
19803;DHT22;66074;50.764;6.090;2023-07-29T03:01:13;19.70;99.90
19803;DHT22;66074;50.764;6.090;2023-07-29T03:03:39;19.80;99.90
19803;DHT22;66074;50.764;6.090;2023-07-29T03:06:06;19.70;99.90
19803;DHT22;66074;50.764;6.090;2023-07-29T03:08:32;19.70;99.90
19803;DHT22;66074;50.764;6.090;2023-07-29T03:10:58;19.70;99.90
19803;DHT22;66074;50.764;6.090;2023-07-29T03:13:24;19.70;99.90
19803;DHT22;66074;50.764;6.090;2023-07-29T03:15:50;19.60;99.90
19803;DHT22;66074;50.764;6.090;2023-07-29T03:18:15;19.60;99.90
19803;DHT22;66074;50.764;6.090;2023-07-29T03:20:41;19.60;99.90
19803;DHT22;66074;50.764;6.090;2023-07-29T03:23:07;19.60;99.90
19803;DHT22;66074;50.764;6.090;2023-07-29T03:25:32;19.60;99.90
19803;DHT22;66074;50.764;6.090;2023-07-29T03:27:58;19.60;99.90
19803;DHT22;66074;50.764;6.090;2023-07-29T03:30:24;19.50;99.90
19803;DHT22;66074;50.764;6.090;2023-07-29T03:32:51;19.60;99.90
19803;DHT22;66074;50.764;6.090;2023-07-29T03:35:16;19.50;99.90
19803;DHT22;66074;50.764;6.090;2023-07-29T03:37:42;19.50;99.90
19803;DHT22;66074;50.764;6.090;2023-07-29T03:40:08;19.50;99.90
19803;DHT22;66074;50.764;6.090;2023-07-29T03:42:36;19.50;99.90
19803;DHT22;66074;50.764;6.090;2023-07-29T03:45:02;19.50;99.90
19803;DHT22;66074;50.764;6.090;2023-07-29T03:47:28;19.50;99.90
19803;DHT22;66074;50.764;6.090;2023-07-29T03:49:54;19.50;99.90
19803;DHT22;66074;50.764;6.090;2023-07-29T03:52:19;19.50;99.90
19803;DHT22;66074;50.764;6.090;2023-07-29T03:54:45;19.50;99.90
19803;DHT22;66074;50.764;6.090;2023-07-29T03:57:11;19.50;99.90
19803;DHT22;66074;50.764;6.090;2023-07-29T03:59:36;19.50;99.90
19803;DHT22;66074;50.764;6.090;2023-07-29T04:02:02;19.50;99.90
19803;DHT22;66074;50.764;6.090;2023-07-29T04:04:27;19.60;99.90
19803;DHT22;66074;50.764;6.090;2023-07-29T04:06:53;19.60;99.90
19803;DHT22;66074;50.764;6.090;2023-07-29T04:09:18;19.60;99.90
19803;DHT22;66074;50.764;6.090;2023-07-29T04:11:44;19.60;99.90
19803;DHT22;66074;50.764;6.090;2023-07-29T04:14:10;19.60;99.90
19803;DHT22;66074;50.764;6.090;2023-07-29T04:16:35;19.60;99.90
19803;DHT22;66074;50.764;6.090;2023-07-29T04:19:01;19.60;99.90
19803;DHT22;66074;50.764;6.090;2023-07-29T04:21:27;19.60;99.90
19803;DHT22;66074;50.764;6.090;2023-07-29T04:23:52;19.60;99.90
19803;DHT22;66074;50.764;6.090;2023-07-29T04:26:18;19.60;99.90
19803;DHT22;66074;50.764;6.090;2023-07-29T04:28:43;19.60;99.90
19803;DHT22;66074;50.764;6.090;2023-07-29T04:31:09;19.60;99.90
19803;DHT22;66074;50.764;6.090;2023-07-29T04:33:34;19.70;99.90
19803;DHT22;66074;50.764;6.090;2023-07-29T04:36:00;19.60;99.90
19803;DHT22;66074;50.764;6.090;2023-07-29T04:38:31;19.70;99.90
19803;DHT22;66074;50.764;6.090;2023-07-29T04:41:00;19.60;99.90
19803;DHT22;66074;50.764;6.090;2023-07-29T04:43:32;19.70;99.90
19803;DHT22;66074;50.764;6.090;2023-07-29T04:45:58;19.70;99.90
19803;DHT22;66074;50.764;6.090;2023-07-29T04:48:24;19.70;99.90
19803;DHT22;66074;50.764;6.090;2023-07-29T04:50:49;19.60;99.90
19803;DHT22;66074;50.764;6.090;2023-07-29T04:53:15;19.60;99.90
19803;DHT22;66074;50.764;6.090;2023-07-29T04:55:44;19.60;99.90
19803;DHT22;66074;50.764;6.090;2023-07-29T04:58:10;19.60;99.90
19803;DHT22;66074;50.764;6.090;2023-07-29T05:00:35;19.60;99.90
19803;DHT22;66074;50.764;6.090;2023-07-29T05:03:01;19.60;99.90
19803;DHT22;66074;50.764;6.090;2023-07-29T05:05:27;19.60;99.90
19803;DHT22;66074;50.764;6.090;2023-07-29T05:07:53;19.60;99.90
19803;DHT22;66074;50.764;6.090;2023-07-29T05:10:18;19.60;99.90
19803;DHT22;66074;50.764;6.090;2023-07-29T05:12:45;19.50;99.90
19803;DHT22;66074;50.764;6.090;2023-07-29T05:15:10;19.50;99.90
19803;DHT22;66074;50.764;6.090;2023-07-29T05:17:36;19.60;99.90
19803;DHT22;66074;50.764;6.090;2023-07-29T05:20:02;19.50;99.90
19803;DHT22;66074;50.764;6.090;2023-07-29T05:22:28;19.50;99.90
19803;DHT22;66074;50.764;6.090;2023-07-29T05:24:53;19.50;99.90
19803;DHT22;66074;50.764;6.090;2023-07-29T05:27:19;19.50;99.90
19803;DHT22;66074;50.764;6.090;2023-07-29T05:29:44;19.50;99.90
19803;DHT22;66074;50.764;6.090;2023-07-29T05:32:10;19.50;99.90
19803;DHT22;66074;50.764;6.090;2023-07-29T05:34:36;19.50;99.90
19803;DHT22;66074;50.764;6.090;2023-07-29T05:37:01;19.50;99.90
19803;DHT22;66074;50.764;6.090;2023-07-29T05:39:27;19.50;99.90
19803;DHT22;66074;50.764;6.090;2023-07-29T05:41:52;19.50;99.90
19803;DHT22;66074;50.764;6.090;2023-07-29T05:44:18;19.50;99.90
19803;DHT22;66074;50.764;6.090;2023-07-29T05:46:43;19.50;99.90
19803;DHT22;66074;50.764;6.090;2023-07-29T05:49:09;19.50;99.90
19803;DHT22;66074;50.764;6.090;2023-07-29T05:51:35;19.60;99.90
19803;DHT22;66074;50.764;6.090;2023-07-29T05:54:00;19.60;99.90
19803;DHT22;66074;50.764;6.090;2023-07-29T05:56:26;19.60;99.90
19803;DHT22;66074;50.764;6.090;2023-07-29T05:58:51;19.60;99.90
19803;DHT22;66074;50.764;6.090;2023-07-29T06:01:18;19.60;99.90
19803;DHT22;66074;50.764;6.090;2023-07-29T06:03:46;19.60;99.90
19803;DHT22;66074;50.764;6.090;2023-07-29T06:06:12;19.60;99.90
19803;DHT22;66074;50.764;6.090;2023-07-29T06:08:38;19.70;99.90
19803;DHT22;66074;50.764;6.090;2023-07-29T06:11:03;19.70;99.90
19803;DHT22;66074;50.764;6.090;2023-07-29T06:13:32;19.80;99.90
19803;DHT22;66074;50.764;6.090;2023-07-29T06:15:57;19.80;99.90
19803;DHT22;66074;50.764;6.090;2023-07-29T06:18:23;19.80;99.90
19803;DHT22;66074;50.764;6.090;2023-07-29T06:20:49;19.80;99.90
19803;DHT22;66074;50.764;6.090;2023-07-29T06:23:15;19.80;99.90
19803;DHT22;66074;50.764;6.090;2023-07-29T06:25:40;19.80;99.90
19803;DHT22;66074;50.764;6.090;2023-07-29T06:28:06;19.80;99.90
19803;DHT22;66074;50.764;6.090;2023-07-29T06:30:31;19.80;99.90
19803;DHT22;66074;50.764;6.090;2023-07-29T06:32:57;19.80;99.90
19803;DHT22;66074;50.764;6.090;2023-07-29T06:35:23;19.80;99.90
19803;DHT22;66074;50.764;6.090;2023-07-29T06:37:49;19.80;99.90
19803;DHT22;66074;50.764;6.090;2023-07-29T06:40:14;19.80;99.90
19803;DHT22;66074;50.764;6.090;2023-07-29T06:42:40;19.80;99.90
19803;DHT22;66074;50.764;6.090;2023-07-29T06:45:06;19.80;99.90
19803;DHT22;66074;50.764;6.090;2023-07-29T06:47:32;19.70;99.90
19803;DHT22;66074;50.764;6.090;2023-07-29T06:49:58;19.70;99.90
19803;DHT22;66074;50.764;6.090;2023-07-29T06:52:23;19.60;99.90
19803;DHT22;66074;50.764;6.090;2023-07-29T06:54:49;19.60;99.90
19803;DHT22;66074;50.764;6.090;2023-07-29T06:57:14;19.60;99.90
19803;DHT22;66074;50.764;6.090;2023-07-29T06:59:40;19.50;99.90
19803;DHT22;66074;50.764;6.090;2023-07-29T07:02:06;19.50;99.90
19803;DHT22;66074;50.764;6.090;2023-07-29T07:04:32;19.50;99.90
19803;DHT22;66074;50.764;6.090;2023-07-29T07:06:58;19.40;99.90
19803;DHT22;66074;50.764;6.090;2023-07-29T07:09:23;19.40;99.90
19803;DHT22;66074;50.764;6.090;2023-07-29T07:11:49;19.50;99.90
19803;DHT22;66074;50.764;6.090;2023-07-29T07:14:14;19.40;99.90
19803;DHT22;66074;50.764;6.090;2023-07-29T07:16:40;19.50;99.90
19803;DHT22;66074;50.764;6.090;2023-07-29T07:19:06;19.50;99.90
19803;DHT22;66074;50.764;6.090;2023-07-29T07:21:31;19.60;99.90
19803;DHT22;66074;50.764;6.090;2023-07-29T07:24:00;19.70;99.90
19803;DHT22;66074;50.764;6.090;2023-07-29T07:26:25;19.90;99.90
19803;DHT22;66074;50.764;6.090;2023-07-29T07:28:51;20.00;99.90
19803;DHT22;66074;50.764;6.090;2023-07-29T07:31:17;20.10;99.90
19803;DHT22;66074;50.764;6.090;2023-07-29T07:33:43;20.20;99.90
19803;DHT22;66074;50.764;6.090;2023-07-29T07:36:08;20.20;99.90
19803;DHT22;66074;50.764;6.090;2023-07-29T07:38:34;20.20;99.90
19803;DHT22;66074;50.764;6.090;2023-07-29T07:40:59;20.20;99.90
19803;DHT22;66074;50.764;6.090;2023-07-29T07:43:25;20.20;99.90
19803;DHT22;66074;50.764;6.090;2023-07-29T07:45:57;20.30;99.90
19803;DHT22;66074;50.764;6.090;2023-07-29T07:48:22;20.40;99.90
19803;DHT22;66074;50.764;6.090;2023-07-29T07:50:48;20.40;99.90
19803;DHT22;66074;50.764;6.090;2023-07-29T07:53:14;20.50;99.90
19803;DHT22;66074;50.764;6.090;2023-07-29T07:55:39;20.50;99.90
19803;DHT22;66074;50.764;6.090;2023-07-29T07:58:05;20.60;99.90
19803;DHT22;66074;50.764;6.090;2023-07-29T08:00:30;20.70;99.90
19803;DHT22;66074;50.764;6.090;2023-07-29T08:02:56;20.80;99.90
19803;DHT22;66074;50.764;6.090;2023-07-29T08:05:22;20.80;99.90
19803;DHT22;66074;50.764;6.090;2023-07-29T08:07:47;20.90;99.90
19803;DHT22;66074;50.764;6.090;2023-07-29T08:10:13;20.90;99.90
19803;DHT22;66074;50.764;6.090;2023-07-29T08:12:38;20.80;99.90
19803;DHT22;66074;50.764;6.090;2023-07-29T08:15:05;20.80;99.90
19803;DHT22;66074;50.764;6.090;2023-07-29T08:17:30;20.80;99.90
19803;DHT22;66074;50.764;6.090;2023-07-29T08:19:56;20.90;99.90
19803;DHT22;66074;50.764;6.090;2023-07-29T08:22:22;20.90;99.90
19803;DHT22;66074;50.764;6.090;2023-07-29T08:24:47;21.00;99.90
19803;DHT22;66074;50.764;6.090;2023-07-29T08:27:13;21.00;99.90
19803;DHT22;66074;50.764;6.090;2023-07-29T08:29:39;21.10;99.90
19803;DHT22;66074;50.764;6.090;2023-07-29T08:32:04;21.00;99.90
19803;DHT22;66074;50.764;6.090;2023-07-29T08:34:30;21.00;99.90
19803;DHT22;66074;50.764;6.090;2023-07-29T08:36:56;21.00;99.90
19803;DHT22;66074;50.764;6.090;2023-07-29T08:39:21;21.10;99.90
19803;DHT22;66074;50.764;6.090;2023-07-29T08:44:23;21.20;99.90
19803;DHT22;66074;50.764;6.090;2023-07-29T08:46:49;21.20;99.90
19803;DHT22;66074;50.764;6.090;2023-07-29T08:49:16;21.20;99.90
19803;DHT22;66074;50.764;6.090;2023-07-29T08:51:48;21.30;99.90
19803;DHT22;66074;50.764;6.090;2023-07-29T08:54:14;21.40;99.90
19803;DHT22;66074;50.764;6.090;2023-07-29T08:56:43;21.50;99.90
19803;DHT22;66074;50.764;6.090;2023-07-29T08:59:09;21.50;99.90
19803;DHT22;66074;50.764;6.090;2023-07-29T09:01:39;21.40;99.90
19803;DHT22;66074;50.764;6.090;2023-07-29T09:04:05;21.40;99.90
19803;DHT22;66074;50.764;6.090;2023-07-29T09:06:31;21.40;99.40
19803;DHT22;66074;50.764;6.090;2023-07-29T09:08:58;21.30;99.60
19803;DHT22;66074;50.764;6.090;2023-07-29T09:11:25;21.20;99.90
19803;DHT22;66074;50.764;6.090;2023-07-29T09:13:51;21.20;99.90
19803;DHT22;66074;50.764;6.090;2023-07-29T09:16:18;21.20;99.90
19803;DHT22;66074;50.764;6.090;2023-07-29T09:18:44;21.20;99.90
19803;DHT22;66074;50.764;6.090;2023-07-29T09:21:09;21.10;99.90
19803;DHT22;66074;50.764;6.090;2023-07-29T09:23:41;21.10;99.90
19803;DHT22;66074;50.764;6.090;2023-07-29T09:26:07;21.00;99.90
19803;DHT22;66074;50.764;6.090;2023-07-29T09:28:35;21.00;99.90
19803;DHT22;66074;50.764;6.090;2023-07-29T09:31:00;21.00;99.90
19803;DHT22;66074;50.764;6.090;2023-07-29T09:33:27;21.10;99.90
19803;DHT22;66074;50.764;6.090;2023-07-29T09:35:52;21.20;99.90
19803;DHT22;66074;50.764;6.090;2023-07-29T09:38:25;21.30;99.90
19803;DHT22;66074;50.764;6.090;2023-07-29T09:40:57;21.30;99.90
19803;DHT22;66074;50.764;6.090;2023-07-29T09:43:31;21.30;99.90
19803;DHT22;66074;50.764;6.090;2023-07-29T09:46:04;21.30;99.90
19803;DHT22;66074;50.764;6.090;2023-07-29T09:48:34;21.30;99.90
19803;DHT22;66074;50.764;6.090;2023-07-29T09:51:01;21.30;99.90
19803;DHT22;66074;50.764;6.090;2023-07-29T09:53:39;21.30;99.90
19803;DHT22;66074;50.764;6.090;2023-07-29T09:56:05;21.30;99.90
19803;DHT22;66074;50.764;6.090;2023-07-29T09:58:32;21.30;99.90
19803;DHT22;66074;50.764;6.090;2023-07-29T10:00:58;21.20;99.90
19803;DHT22;66074;50.764;6.090;2023-07-29T10:03:24;21.30;99.90
19803;DHT22;66074;50.764;6.090;2023-07-29T10:05:50;21.30;99.90
19803;DHT22;66074;50.764;6.090;2023-07-29T10:08:16;21.40;99.90
19803;DHT22;66074;50.764;6.090;2023-07-29T10:10:42;21.40;99.90
19803;DHT22;66074;50.764;6.090;2023-07-29T10:13:09;21.40;99.90
19803;DHT22;66074;50.764;6.090;2023-07-29T10:15:36;21.40;99.90
19803;DHT22;66074;50.764;6.090;2023-07-29T10:18:02;21.40;99.90
19803;DHT22;66074;50.764;6.090;2023-07-29T10:20:30;21.50;99.90
19803;DHT22;66074;50.764;6.090;2023-07-29T10:22:59;21.70;99.90
19803;DHT22;66074;50.764;6.090;2023-07-29T10:25:32;21.60;99.90
19803;DHT22;66074;50.764;6.090;2023-07-29T10:28:10;21.70;99.90
19803;DHT22;66074;50.764;6.090;2023-07-29T10:30:38;21.80;99.90
19803;DHT22;66074;50.764;6.090;2023-07-29T10:33:05;22.00;99.90
19803;DHT22;66074;50.764;6.090;2023-07-29T10:35:34;22.10;99.90
19803;DHT22;66074;50.764;6.090;2023-07-29T10:38:01;22.00;99.90
19803;DHT22;66074;50.764;6.090;2023-07-29T10:40:47;21.90;99.90
19803;DHT22;66074;50.764;6.090;2023-07-29T10:45:49;22.00;99.90
19803;DHT22;66074;50.764;6.090;2023-07-29T10:51:30;22.10;99.90
19803;DHT22;66074;50.764;6.090;2023-07-29T10:54:14;22.10;99.60
19803;DHT22;66074;50.764;6.090;2023-07-29T10:56:42;22.10;99.50
19803;DHT22;66074;50.764;6.090;2023-07-29T11:01:39;22.00;99.70
19803;DHT22;66074;50.764;6.090;2023-07-29T11:04:28;22.00;99.60
19803;DHT22;66074;50.764;6.090;2023-07-29T11:09:51;22.00;99.10
19803;DHT22;66074;50.764;6.090;2023-07-29T11:12:45;22.00;99.10
19803;DHT22;66074;50.764;6.090;2023-07-29T11:15:15;22.10;98.70
19803;DHT22;66074;50.764;6.090;2023-07-29T11:17:46;22.20;98.90
19803;DHT22;66074;50.764;6.090;2023-07-29T11:20:13;22.20;99.00
19803;DHT22;66074;50.764;6.090;2023-07-29T11:22:40;22.30;99.20
19803;DHT22;66074;50.764;6.090;2023-07-29T11:25:08;22.30;98.50
19803;DHT22;66074;50.764;6.090;2023-07-29T11:27:35;22.30;98.70
19803;DHT22;66074;50.764;6.090;2023-07-29T11:30:06;22.30;98.50
19803;DHT22;66074;50.764;6.090;2023-07-29T11:32:33;22.40;98.50
19803;DHT22;66074;50.764;6.090;2023-07-29T11:35:03;22.40;98.60
19803;DHT22;66074;50.764;6.090;2023-07-29T11:37:29;22.50;98.40
19803;DHT22;66074;50.764;6.090;2023-07-29T11:39:55;22.70;98.30
19803;DHT22;66074;50.764;6.090;2023-07-29T11:42:20;22.70;98.30
19803;DHT22;66074;50.764;6.090;2023-07-29T11:44:46;22.80;98.10
19803;DHT22;66074;50.764;6.090;2023-07-29T11:47:12;22.90;98.40
19803;DHT22;66074;50.764;6.090;2023-07-29T11:49:40;23.00;98.10
19803;DHT22;66074;50.764;6.090;2023-07-29T11:52:09;23.10;98.00
19803;DHT22;66074;50.764;6.090;2023-07-29T11:54:36;23.20;97.80
19803;DHT22;66074;50.764;6.090;2023-07-29T11:57:07;23.10;97.20
19803;DHT22;66074;50.764;6.090;2023-07-29T11:59:34;23.20;97.10
19803;DHT22;66074;50.764;6.090;2023-07-29T12:02:15;23.40;97.70
19803;DHT22;66074;50.764;6.090;2023-07-29T12:04:41;23.50;96.90
19803;DHT22;66074;50.764;6.090;2023-07-29T12:07:08;23.50;96.90
19803;DHT22;66074;50.764;6.090;2023-07-29T12:09:35;23.50;96.60
19803;DHT22;66074;50.764;6.090;2023-07-29T12:12:05;23.50;96.90
19803;DHT22;66074;50.764;6.090;2023-07-29T12:14:32;23.40;96.40
19803;DHT22;66074;50.764;6.090;2023-07-29T12:17:00;23.30;96.80
19803;DHT22;66074;50.764;6.090;2023-07-29T12:19:35;23.20;96.60
19803;DHT22;66074;50.764;6.090;2023-07-29T12:22:05;23.10;96.20
19803;DHT22;66074;50.764;6.090;2023-07-29T12:24:31;23.00;96.40
19803;DHT22;66074;50.764;6.090;2023-07-29T12:26:58;22.90;96.60
19803;DHT22;66074;50.764;6.090;2023-07-29T12:29:24;22.80;96.70
19803;DHT22;66074;50.764;6.090;2023-07-29T12:32:00;22.70;96.50
19803;DHT22;66074;50.764;6.090;2023-07-29T12:34:27;22.60;96.70
19803;DHT22;66074;50.764;6.090;2023-07-29T12:36:54;22.50;96.60
19803;DHT22;66074;50.764;6.090;2023-07-29T12:39:31;22.40;97.00
19803;DHT22;66074;50.764;6.090;2023-07-29T12:41:59;22.40;97.30
19803;DHT22;66074;50.764;6.090;2023-07-29T12:44:35;22.30;97.30
19803;DHT22;66074;50.764;6.090;2023-07-29T12:47:02;22.20;97.60
19803;DHT22;66074;50.764;6.090;2023-07-29T12:49:29;22.10;98.10
19803;DHT22;66074;50.764;6.090;2023-07-29T12:51:56;22.00;98.10
19803;DHT22;66074;50.764;6.090;2023-07-29T12:54:22;21.90;98.80
19803;DHT22;66074;50.764;6.090;2023-07-29T12:56:47;21.70;98.10
19803;DHT22;66074;50.764;6.090;2023-07-29T12:59:13;21.70;98.40
19803;DHT22;66074;50.764;6.090;2023-07-29T13:01:39;21.60;98.00
19803;DHT22;66074;50.764;6.090;2023-07-29T13:04:04;21.60;98.30
19803;DHT22;66074;50.764;6.090;2023-07-29T13:06:30;21.50;98.40
19803;DHT22;66074;50.764;6.090;2023-07-29T13:08:56;21.40;98.70
19803;DHT22;66074;50.764;6.090;2023-07-29T13:11:21;21.40;98.90
19803;DHT22;66074;50.764;6.090;2023-07-29T13:13:47;21.30;99.20
19803;DHT22;66074;50.764;6.090;2023-07-29T13:16:13;21.30;99.40
19803;DHT22;66074;50.764;6.090;2023-07-29T13:18:39;21.30;99.10
19803;DHT22;66074;50.764;6.090;2023-07-29T13:21:05;21.30;99.00
19803;DHT22;66074;50.764;6.090;2023-07-29T13:23:30;21.30;99.70
19803;DHT22;66074;50.764;6.090;2023-07-29T13:25:57;21.80;99.90
19803;DHT22;66074;50.764;6.090;2023-07-29T13:28:22;23.30;99.90
19803;DHT22;66074;50.764;6.090;2023-07-29T13:30:48;25.10;99.90
19803;DHT22;66074;50.764;6.090;2023-07-29T13:33:14;26.80;99.90
19803;DHT22;66074;50.764;6.090;2023-07-29T13:35:40;27.60;99.90
19803;DHT22;66074;50.764;6.090;2023-07-29T13:38:05;27.10;97.50
19803;DHT22;66074;50.764;6.090;2023-07-29T13:40:31;26.30;97.00
19803;DHT22;66074;50.764;6.090;2023-07-29T13:42:57;25.60;99.00
19803;DHT22;66074;50.764;6.090;2023-07-29T13:45:22;24.90;97.70
19803;DHT22;66074;50.764;6.090;2023-07-29T13:47:49;24.40;97.60
19803;DHT22;66074;50.764;6.090;2023-07-29T13:50:16;24.10;98.50
19803;DHT22;66074;50.764;6.090;2023-07-29T13:52:41;23.90;98.70
19803;DHT22;66074;50.764;6.090;2023-07-29T13:55:07;23.80;98.20
19803;DHT22;66074;50.764;6.090;2023-07-29T13:57:33;23.60;97.60
19803;DHT22;66074;50.764;6.090;2023-07-29T13:59:59;23.50;98.40
19803;DHT22;66074;50.764;6.090;2023-07-29T14:02:24;23.30;97.70
19803;DHT22;66074;50.764;6.090;2023-07-29T14:04:53;23.10;98.10
19803;DHT22;66074;50.764;6.090;2023-07-29T14:07:19;23.10;98.30
19803;DHT22;66074;50.764;6.090;2023-07-29T14:09:45;23.20;98.60
19803;DHT22;66074;50.764;6.090;2023-07-29T14:12:10;23.30;98.90
19803;DHT22;66074;50.764;6.090;2023-07-29T14:14:38;23.40;98.40
19803;DHT22;66074;50.764;6.090;2023-07-29T14:17:04;24.10;99.30
19803;DHT22;66074;50.764;6.090;2023-07-29T14:19:31;25.70;98.80
19803;DHT22;66074;50.764;6.090;2023-07-29T14:21:56;26.20;98.60
19803;DHT22;66074;50.764;6.090;2023-07-29T14:24:22;26.50;98.00
19803;DHT22;66074;50.764;6.090;2023-07-29T14:26:48;26.90;99.90
19803;DHT22;66074;50.764;6.090;2023-07-29T14:29:13;27.30;99.90
19803;DHT22;66074;50.764;6.090;2023-07-29T14:31:39;27.50;99.90
19803;DHT22;66074;50.764;6.090;2023-07-29T14:34:05;27.40;97.90
19803;DHT22;66074;50.764;6.090;2023-07-29T14:36:31;26.90;97.50
19803;DHT22;66074;50.764;6.090;2023-07-29T14:38:56;26.50;97.40
19803;DHT22;66074;50.764;6.090;2023-07-29T14:41:22;26.40;97.00
19803;DHT22;66074;50.764;6.090;2023-07-29T14:43:47;26.20;96.70
19803;DHT22;66074;50.764;6.090;2023-07-29T14:46:13;25.80;96.50
19803;DHT22;66074;50.764;6.090;2023-07-29T14:48:39;25.50;96.50
19803;DHT22;66074;50.764;6.090;2023-07-29T14:51:04;25.30;96.40
19803;DHT22;66074;50.764;6.090;2023-07-29T14:53:30;25.10;96.60
19803;DHT22;66074;50.764;6.090;2023-07-29T14:55:55;25.10;96.80
19803;DHT22;66074;50.764;6.090;2023-07-29T14:58:21;25.20;96.90
19803;DHT22;66074;50.764;6.090;2023-07-29T15:00:47;25.30;97.10
19803;DHT22;66074;50.764;6.090;2023-07-29T15:03:12;25.40;97.00
19803;DHT22;66074;50.764;6.090;2023-07-29T15:05:38;25.30;96.90
19803;DHT22;66074;50.764;6.090;2023-07-29T15:08:06;25.00;96.90
19803;DHT22;66074;50.764;6.090;2023-07-29T15:10:31;24.80;96.70
19803;DHT22;66074;50.764;6.090;2023-07-29T15:12:57;24.70;96.70
19803;DHT22;66074;50.764;6.090;2023-07-29T15:15:22;24.60;96.90
19803;DHT22;66074;50.764;6.090;2023-07-29T15:17:48;24.70;96.90
19803;DHT22;66074;50.764;6.090;2023-07-29T15:20:14;24.80;96.80
19803;DHT22;66074;50.764;6.090;2023-07-29T15:22:39;24.90;97.00
19803;DHT22;66074;50.764;6.090;2023-07-29T15:25:05;25.20;96.90
19803;DHT22;66074;50.764;6.090;2023-07-29T15:27:31;25.20;96.60
19803;DHT22;66074;50.764;6.090;2023-07-29T15:29:56;25.10;96.70
19803;DHT22;66074;50.764;6.090;2023-07-29T15:32:22;25.10;96.50
19803;DHT22;66074;50.764;6.090;2023-07-29T15:34:49;25.50;96.30
19803;DHT22;66074;50.764;6.090;2023-07-29T15:37:15;25.70;96.20
19803;DHT22;66074;50.764;6.090;2023-07-29T15:39:41;25.90;95.70
19803;DHT22;66074;50.764;6.090;2023-07-29T15:42:07;26.10;95.80
19803;DHT22;66074;50.764;6.090;2023-07-29T15:44:33;26.20;95.50